Date,TemperatureHighF,TemperatureAvgF,TemperatureLowF,DewpointHighF,DewpointAvgF,DewpointLowF,HumidityHigh,HumidityAvg,HumidityLow,PressureMaxIn,PressureMinIn,WindSpeedMaxMPH,WindSpeedAvgMPH,GustSpeedMaxMPH,PrecipitationSumIn
2013-6-1,89.2,74.6,61.2,40.2,34.3,0.0,36,24,16,29.88,29.76,8,2,8,0.00
2013-6-2,89.1,74.7,60.8,44.6,38.2,34.1,40,28,15,29.76,29.65,6,2,8,0.00
2013-6-3,90.9,73.7,64.4,40.8,35.4,30.0,37,26,17,29.88,29.65,10,3,10,0.00
2013-6-4,84.4,73.2,60.8,48.5,42.0,34.4,50,33,23,29.82,29.71,7,1,8,0.00
2013-6-5,86.9,73.4,59.9,53.2,47.9,44.2,60,42,24,29.88,29.79,6,1,9,0.00
2013-6-6,91.2,76.3,62.6,56.8,50.3,45.2,66,42,25,29.88,29.76,6,1,7,0.00
2013-6-7,98.6,81.3,64.8,48.8,41.3,32.7,46,25,16,29.82,29.76,6,2,6,0.00
2013-6-8,101.1,86.8,72.5,46.5,42.9,36.5,34,22,15,29.76,29.68,10,2,11,0.00
2013-6-9,88.2,78.7,64.8,50.8,43.9,35.1,47,30,22,29.76,29.68,8,1,9,30.30
2013-6-10,69.1,63.1,55.8,48.8,44.5,40.3,71,51,37,29.85,29.68,6,1,6,0.00
2013-6-11,80.6,66.7,52.9,46.9,41.4,37.0,72,43,23,29.91,29.82,13,1,13,0.00
2013-6-12,79.5,67.4,54.3,45.5,36.2,24.2,60,35,15,29.88,29.79,10,1,10,0.00
2013-6-13,77.2,64.6,50.5,35.8,29.2,23.1,39,27,16,30.00,29.82,8,1,10,0.00
2013-6-14,83.5,70.2,56.8,36.8,29.1,23.2,33,22,16,29.91,29.76,10,3,11,0.00
2013-6-15,83.5,69.6,55.2,40.0,31.6,22.5,40,26,14,29.88,29.76,8,1,11,0.00
2013-6-16,84.9,70.2,56.3,37.0,29.5,23.5,29,23,14,30.00,29.85,6,2,9,0.00
2013-6-17,80.6,69.8,57.6,40.5,33.8,27.4,39,27,17,29.97,29.88,10,2,10,0.00
2013-6-18,72.3,62.9,52.3,39.4,35.2,31.2,48,36,25,29.88,29.76,8,2,9,30.30
2013-6-19,70.5,58.7,45.0,39.2,31.7,25.1,68,38,22,29.94,29.79,8,1,8,0.00
2013-6-20,76.5,62.8,47.8,36.9,29.8,23.2,45,30,18,29.91,29.82,6,1,9,0.00
2013-6-21,80.6,67.6,54.1,36.0,31.9,27.3,37,27,20,29.88,29.82,8,2,8,30.30
2013-6-22,84.9,71.5,57.7,38.7,31.6,22.2,38,24,14,29.88,29.76,10,2,10,0.00
2013-6-23,74.1,64.9,58.1,51.3,38.3,26.2,70,39,25,29.79,29.68,6,2,9,0.00
2013-6-24,61.2,56.9,54.1,53.2,50.8,47.8,95,80,68,29.82,29.65,6,2,8,30.76
2013-6-25,62.6,59.0,54.0,61.8,58.1,52.6,98,97,95,29.91,29.76,7,1,10,24.62
2013-6-26,81.0,69.4,61.2,64.2,56.7,48.7,98,68,33,30.00,29.88,9,1,9,31.96
2013-6-27,89.1,73.8,59.7,56.5,52.4,44.4,82,52,22,30.03,29.94,5,1,8,31.96
2013-6-28,93.4,78.8,65.7,55.4,46.3,34.4,60,35,17,30.00,29.88,8,2,8,31.96
2013-6-29,97.0,81.5,68.5,57.5,47.3,40.5,47,32,16,29.91,29.79,6,2,8,0.00
2013-6-30,97.3,82.1,68.5,50.8,45.1,36.4,45,29,16,29.85,29.76,6,2,7,0.00